Pagrindinis puslapis
METAR-TAF:

METAR-TAF

Oro uostai :

Sleetmute, Aliaska, Jungtinės Amerikos Valstijos

platuma: 61-43N, ilguma: 157-09W, Aukštis: 54 m

Dabartinis oras

Ataskaita buvo paskelbta 4 valandos ir 44 minutes, ne 15:56 UTC
Ramus vėjas
Temperatūra -2°C
Drėgmė 93%
Slėgis 1022 hPa
Matomumas: 16.1 km
Apsiniaukę ne aukštis 3300 ft

METAR: PASL 281556Z AUTO 00000KT 10SM OVC033 M02/M03 A3017 RMK AO2 SLP209 T10171028 FZRANO

Laikas: 12:40 (20:40 UTC)


TAF: trūkstamas

Orai ataskaitas ir orų prognozės (METAR, TAF).

turimą stotys yra geltonos ir raudonos taškus žemėlapyje.

Perkelti pele per norėdami pamatyti stoties vardą.

Tada spustelėkite, norėdami matyti oro stebėjimo ir prognozės.

Norėdami pakeisti žemėlapį: spustelėkite ant žalios mygtukų su juodo kryžiaus žemyn,; žalią mygtuką su brūkšneliu, jei norite nutolinti; arba žalių rodyklių gretimoms žemėlapius.


METAR-TAF: